sensor_id;sensor_type;location;lat;lon;timestamp;temperature;humidity
37204;DHT22;23098;48.054;10.636;2022-08-05T03:56:32;23.30;98.50
37204;DHT22;23098;48.054;10.636;2022-08-05T03:59:12;23.60;98.10
37204;DHT22;23098;48.054;10.636;2022-08-05T04:01:42;23.70;97.80
37204;DHT22;23098;48.054;10.636;2022-08-05T04:04:09;23.80;97.60
37204;DHT22;23098;48.054;10.636;2022-08-05T04:06:37;24.00;97.40
37204;DHT22;23098;48.054;10.636;2022-08-05T04:09:04;24.00;97.30
37204;DHT22;23098;48.054;10.636;2022-08-05T04:11:33;24.10;97.20
37204;DHT22;23098;48.054;10.636;2022-08-05T04:14:01;24.00;97.40
37204;DHT22;23098;48.054;10.636;2022-08-05T04:16:27;24.10;97.10
37204;DHT22;23098;48.054;10.636;2022-08-05T04:18:53;24.20;97.00
37204;DHT22;23098;48.054;10.636;2022-08-05T04:21:19;24.20;97.10
37204;DHT22;23098;48.054;10.636;2022-08-05T04:23:45;24.30;97.10
37204;DHT22;23098;48.054;10.636;2022-08-05T04:26:12;24.40;96.80
37204;DHT22;23098;48.054;10.636;2022-08-05T04:28:39;24.60;96.70
37204;DHT22;23098;48.054;10.636;2022-08-05T04:31:05;24.50;96.70
37204;DHT22;23098;48.054;10.636;2022-08-05T04:33:31;24.50;96.60
37204;DHT22;23098;48.054;10.636;2022-08-05T04:35:56;24.60;96.80
37204;DHT22;23098;48.054;10.636;2022-08-05T04:38:22;24.60;96.60
37204;DHT22;23098;48.054;10.636;2022-08-05T04:40:48;24.60;96.90
37204;DHT22;23098;48.054;10.636;2022-08-05T04:43:13;24.70;96.60
37204;DHT22;23098;48.054;10.636;2022-08-05T04:45:40;24.80;96.80
37204;DHT22;23098;48.054;10.636;2022-08-05T04:48:15;24.80;96.50
37204;DHT22;23098;48.054;10.636;2022-08-05T04:50:44;25.00;96.50
37204;DHT22;23098;48.054;10.636;2022-08-05T04:53:11;25.00;96.40
37204;DHT22;23098;48.054;10.636;2022-08-05T04:55:38;24.80;96.50
37204;DHT22;23098;48.054;10.636;2022-08-05T04:58:05;24.60;97.10
37204;DHT22;23098;48.054;10.636;2022-08-05T05:00:36;24.40;97.30
37204;DHT22;23098;48.054;10.636;2022-08-05T05:05:37;24.70;97.30
37204;DHT22;23098;48.054;10.636;2022-08-05T05:08:08;25.10;96.50
37204;DHT22;23098;48.054;10.636;2022-08-05T05:13:12;25.10;96.60
37204;DHT22;23098;48.054;10.636;2022-08-05T05:15:38;24.90;96.80
37204;DHT22;23098;48.054;10.636;2022-08-05T05:18:04;24.70;97.00
37204;DHT22;23098;48.054;10.636;2022-08-05T05:20:30;24.70;97.30
37204;DHT22;23098;48.054;10.636;2022-08-05T05:22:58;25.80;96.40
37204;DHT22;23098;48.054;10.636;2022-08-05T05:25:25;26.70;95.50
37204;DHT22;23098;48.054;10.636;2022-08-05T05:38:01;27.20;93.70
37204;DHT22;23098;48.054;10.636;2022-08-05T05:40:28;26.60;94.20
37204;DHT22;23098;48.054;10.636;2022-08-05T05:42:54;26.00;95.00
37204;DHT22;23098;48.054;10.636;2022-08-05T05:45:20;25.60;95.90
37204;DHT22;23098;48.054;10.636;2022-08-05T05:47:46;25.30;96.30
37204;DHT22;23098;48.054;10.636;2022-08-05T05:50:14;25.10;96.50
37204;DHT22;23098;48.054;10.636;2022-08-05T05:52:40;24.90;96.70
37204;DHT22;23098;48.054;10.636;2022-08-05T05:55:09;24.70;97.20
37204;DHT22;23098;48.054;10.636;2022-08-05T05:57:38;24.60;97.50
37204;DHT22;23098;48.054;10.636;2022-08-05T06:00:09;24.50;97.60
37204;DHT22;23098;48.054;10.636;2022-08-05T06:02:35;24.40;97.80
37204;DHT22;23098;48.054;10.636;2022-08-05T06:05:01;24.40;97.90
37204;DHT22;23098;48.054;10.636;2022-08-05T06:07:26;24.30;98.20
37204;DHT22;23098;48.054;10.636;2022-08-05T06:09:52;24.20;97.90
37204;DHT22;23098;48.054;10.636;2022-08-05T06:12:17;24.10;98.70
37204;DHT22;23098;48.054;10.636;2022-08-05T06:14:43;24.10;98.40
37204;DHT22;23098;48.054;10.636;2022-08-05T06:17:12;24.10;98.90
37204;DHT22;23098;48.054;10.636;2022-08-05T06:19:38;24.00;99.10
37204;DHT22;23098;48.054;10.636;2022-08-05T06:22:05;24.00;99.10
37204;DHT22;23098;48.054;10.636;2022-08-05T06:24:32;24.10;99.00
37204;DHT22;23098;48.054;10.636;2022-08-05T06:26:58;24.00;99.00
37204;DHT22;23098;48.054;10.636;2022-08-05T06:29:25;24.00;98.90
37204;DHT22;23098;48.054;10.636;2022-08-05T06:31:51;24.00;99.00
37204;DHT22;23098;48.054;10.636;2022-08-05T06:34:17;24.20;98.60
37204;DHT22;23098;48.054;10.636;2022-08-05T06:36:43;24.10;99.00
37204;DHT22;23098;48.054;10.636;2022-08-05T06:39:08;24.10;98.80
37204;DHT22;23098;48.054;10.636;2022-08-05T06:41:34;24.10;98.90
37204;DHT22;23098;48.054;10.636;2022-08-05T06:43:59;24.20;98.90
37204;DHT22;23098;48.054;10.636;2022-08-05T06:46:25;24.30;98.50
37204;DHT22;23098;48.054;10.636;2022-08-05T06:48:50;24.40;98.70
37204;DHT22;23098;48.054;10.636;2022-08-05T06:51:16;24.30;98.60
37204;DHT22;23098;48.054;10.636;2022-08-05T06:53:41;24.20;98.70
37204;DHT22;23098;48.054;10.636;2022-08-05T06:56:07;24.00;98.20
37204;DHT22;23098;48.054;10.636;2022-08-05T06:58:33;23.90;98.20
37204;DHT22;23098;48.054;10.636;2022-08-05T07:01:00;23.80;98.00
37204;DHT22;23098;48.054;10.636;2022-08-05T07:03:27;23.80;97.60
37204;DHT22;23098;48.054;10.636;2022-08-05T07:05:53;23.70;97.30
37204;DHT22;23098;48.054;10.636;2022-08-05T07:08:19;23.70;97.50
37204;DHT22;23098;48.054;10.636;2022-08-05T07:10:47;23.80;97.70
37204;DHT22;23098;48.054;10.636;2022-08-05T07:13:13;23.80;97.60
37204;DHT22;23098;48.054;10.636;2022-08-05T07:15:57;23.80;98.00
37204;DHT22;23098;48.054;10.636;2022-08-05T07:18:41;23.90;97.30
37204;DHT22;23098;48.054;10.636;2022-08-05T07:21:07;23.90;97.30
37204;DHT22;23098;48.054;10.636;2022-08-05T07:23:33;23.90;97.20
37204;DHT22;23098;48.054;10.636;2022-08-05T07:25:59;24.00;97.40
37204;DHT22;23098;48.054;10.636;2022-08-05T07:31:00;23.90;97.00
37204;DHT22;23098;48.054;10.636;2022-08-05T07:33:26;23.90;97.60
37204;DHT22;23098;48.054;10.636;2022-08-05T07:35:52;23.90;97.10
37204;DHT22;23098;48.054;10.636;2022-08-05T07:38:19;24.00;97.50
37204;DHT22;23098;48.054;10.636;2022-08-05T07:40:46;24.10;97.50
37204;DHT22;23098;48.054;10.636;2022-08-05T07:56:07;24.40;97.80
37204;DHT22;23098;48.054;10.636;2022-08-05T07:58:33;24.80;97.60
37204;DHT22;23098;48.054;10.636;2022-08-05T08:00:58;25.00;97.00
37204;DHT22;23098;48.054;10.636;2022-08-05T08:03:24;25.10;97.40
37204;DHT22;23098;48.054;10.636;2022-08-05T08:05:49;24.90;97.10
37204;DHT22;23098;48.054;10.636;2022-08-05T08:08:17;24.80;97.30
37204;DHT22;23098;48.054;10.636;2022-08-05T08:10:43;24.60;97.20
37204;DHT22;23098;48.054;10.636;2022-08-05T08:13:10;24.80;97.50
37204;DHT22;23098;48.054;10.636;2022-08-05T08:15:35;24.70;97.30
37204;DHT22;23098;48.054;10.636;2022-08-05T08:18:01;24.80;97.30
37204;DHT22;23098;48.054;10.636;2022-08-05T08:20:26;25.00;97.10
37204;DHT22;23098;48.054;10.636;2022-08-05T08:22:57;24.90;96.80
37204;DHT22;23098;48.054;10.636;2022-08-05T08:25:27;24.80;96.70
37204;DHT22;23098;48.054;10.636;2022-08-05T08:27:54;24.90;97.30
37204;DHT22;23098;48.054;10.636;2022-08-05T08:30:19;25.10;97.10
37204;DHT22;23098;48.054;10.636;2022-08-05T08:32:45;25.40;96.80
37204;DHT22;23098;48.054;10.636;2022-08-05T08:35:11;25.40;96.70
37204;DHT22;23098;48.054;10.636;2022-08-05T08:37:37;25.40;96.30
37204;DHT22;23098;48.054;10.636;2022-08-05T08:40:03;25.60;96.20
37204;DHT22;23098;48.054;10.636;2022-08-05T08:42:29;25.60;96.10
37204;DHT22;23098;48.054;10.636;2022-08-05T08:44:56;25.70;96.50
37204;DHT22;23098;48.054;10.636;2022-08-05T08:47:24;26.10;96.30
37204;DHT22;23098;48.054;10.636;2022-08-05T08:49:52;26.10;96.30
37204;DHT22;23098;48.054;10.636;2022-08-05T08:52:23;25.90;95.60
37204;DHT22;23098;48.054;10.636;2022-08-05T08:54:51;26.00;95.90
37204;DHT22;23098;48.054;10.636;2022-08-05T08:57:17;26.20;96.70
37204;DHT22;23098;48.054;10.636;2022-08-05T08:59:43;26.50;96.50
37204;DHT22;23098;48.054;10.636;2022-08-05T09:02:09;26.80;95.90
37204;DHT22;23098;48.054;10.636;2022-08-05T09:04:36;26.60;94.90
37204;DHT22;23098;48.054;10.636;2022-08-05T09:07:07;26.20;95.00
37204;DHT22;23098;48.054;10.636;2022-08-05T09:09:34;26.20;95.40
37204;DHT22;23098;48.054;10.636;2022-08-05T09:12:03;26.30;95.80
37204;DHT22;23098;48.054;10.636;2022-08-05T09:14:34;26.60;94.90
37204;DHT22;23098;48.054;10.636;2022-08-05T09:17:00;26.60;94.10
37204;DHT22;23098;48.054;10.636;2022-08-05T09:19:26;26.60;95.00
37204;DHT22;23098;48.054;10.636;2022-08-05T09:21:52;26.60;94.60
37204;DHT22;23098;48.054;10.636;2022-08-05T09:24:17;26.80;94.40
37204;DHT22;23098;48.054;10.636;2022-08-05T09:26:49;26.90;93.90
37204;DHT22;23098;48.054;10.636;2022-08-05T09:29:16;27.10;94.40
37204;DHT22;23098;48.054;10.636;2022-08-05T09:31:42;27.20;94.30
37204;DHT22;23098;48.054;10.636;2022-08-05T09:34:09;26.90;93.70
37204;DHT22;23098;48.054;10.636;2022-08-05T09:36:38;26.80;94.10
37204;DHT22;23098;48.054;10.636;2022-08-05T09:39:07;27.00;94.80
37204;DHT22;23098;48.054;10.636;2022-08-05T09:41:34;27.00;94.00
37204;DHT22;23098;48.054;10.636;2022-08-05T09:43:59;26.90;93.40
37204;DHT22;23098;48.054;10.636;2022-08-05T09:46:30;26.90;94.30
37204;DHT22;23098;48.054;10.636;2022-08-05T09:48:57;27.40;93.60
37204;DHT22;23098;48.054;10.636;2022-08-05T09:51:35;27.60;93.20
37204;DHT22;23098;48.054;10.636;2022-08-05T09:54:04;27.80;93.30
37204;DHT22;23098;48.054;10.636;2022-08-05T09:56:35;27.90;93.30
37204;DHT22;23098;48.054;10.636;2022-08-05T09:59:12;27.90;92.20
37204;DHT22;23098;48.054;10.636;2022-08-05T10:01:41;28.20;92.80
37204;DHT22;23098;48.054;10.636;2022-08-05T10:04:12;28.50;92.00
37204;DHT22;23098;48.054;10.636;2022-08-05T10:06:56;28.50;92.10
37204;DHT22;23098;48.054;10.636;2022-08-05T10:09:22;28.60;91.60
37204;DHT22;23098;48.054;10.636;2022-08-05T10:11:49;28.70;92.50
37204;DHT22;23098;48.054;10.636;2022-08-05T10:14:25;29.00;91.00
37204;DHT22;23098;48.054;10.636;2022-08-05T10:16:52;29.10;91.60
37204;DHT22;23098;48.054;10.636;2022-08-05T10:19:25;29.30;90.50
37204;DHT22;23098;48.054;10.636;2022-08-05T10:21:50;29.20;90.10
37204;DHT22;23098;48.054;10.636;2022-08-05T10:24:17;29.40;90.40
37204;DHT22;23098;48.054;10.636;2022-08-05T10:26:45;29.40;90.70
37204;DHT22;23098;48.054;10.636;2022-08-05T10:29:11;29.30;89.10
37204;DHT22;23098;48.054;10.636;2022-08-05T10:31:37;29.50;89.70
37204;DHT22;23098;48.054;10.636;2022-08-05T10:34:07;29.30;89.00
37204;DHT22;23098;48.054;10.636;2022-08-05T10:36:38;29.30;88.90
37204;DHT22;23098;48.054;10.636;2022-08-05T10:39:26;29.10;89.30
37204;DHT22;23098;48.054;10.636;2022-08-05T10:42:21;29.00;89.30
37204;DHT22;23098;48.054;10.636;2022-08-05T10:44:53;29.20;89.30
37204;DHT22;23098;48.054;10.636;2022-08-05T10:47:30;29.60;90.20
37204;DHT22;23098;48.054;10.636;2022-08-05T10:52:52;29.70;88.30
37204;DHT22;23098;48.054;10.636;2022-08-05T10:55:25;30.10;91.00
37204;DHT22;23098;48.054;10.636;2022-08-05T10:58:10;30.50;88.40
37204;DHT22;23098;48.054;10.636;2022-08-05T11:00:36;30.70;88.20
37204;DHT22;23098;48.054;10.636;2022-08-05T11:08:03;30.00;88.20
37204;DHT22;23098;48.054;10.636;2022-08-05T11:10:30;29.90;86.40
37204;DHT22;23098;48.054;10.636;2022-08-05T11:12:58;29.90;87.90
37204;DHT22;23098;48.054;10.636;2022-08-05T11:15:25;29.80;86.30
37204;DHT22;23098;48.054;10.636;2022-08-05T11:18:26;29.80;88.60
37204;DHT22;23098;48.054;10.636;2022-08-05T11:20:53;30.00;88.20
37204;DHT22;23098;48.054;10.636;2022-08-05T11:23:50;30.40;87.10
37204;DHT22;23098;48.054;10.636;2022-08-05T11:28:55;31.20;86.70
37204;DHT22;23098;48.054;10.636;2022-08-05T11:31:23;31.40;83.30
37204;DHT22;23098;48.054;10.636;2022-08-05T11:39:09;30.60;84.00
37204;DHT22;23098;48.054;10.636;2022-08-05T11:44:14;30.80;86.70
37204;DHT22;23098;48.054;10.636;2022-08-05T11:46:49;31.00;86.20
37204;DHT22;23098;48.054;10.636;2022-08-05T11:49:18;31.10;85.60
37204;DHT22;23098;48.054;10.636;2022-08-05T11:56:51;30.70;86.00
37204;DHT22;23098;48.054;10.636;2022-08-05T11:59:23;30.90;84.60
37204;DHT22;23098;48.054;10.636;2022-08-05T12:01:53;30.90;86.50
37204;DHT22;23098;48.054;10.636;2022-08-05T12:04:19;30.60;86.20
37204;DHT22;23098;48.054;10.636;2022-08-05T12:11:54;30.90;85.80
37204;DHT22;23098;48.054;10.636;2022-08-05T12:14:20;31.20;85.30
37204;DHT22;23098;48.054;10.636;2022-08-05T12:16:46;31.50;84.50
37204;DHT22;23098;48.054;10.636;2022-08-05T12:19:14;31.60;85.50
37204;DHT22;23098;48.054;10.636;2022-08-05T12:21:46;31.80;83.50
37204;DHT22;23098;48.054;10.636;2022-08-05T12:24:14;31.50;84.20
37204;DHT22;23098;48.054;10.636;2022-08-05T12:26:52;31.30;84.10
37204;DHT22;23098;48.054;10.636;2022-08-05T12:29:22;31.50;82.60
37204;DHT22;23098;48.054;10.636;2022-08-05T12:31:59;31.60;83.60
37204;DHT22;23098;48.054;10.636;2022-08-05T12:34:29;31.90;83.70
37204;DHT22;23098;48.054;10.636;2022-08-05T12:36:57;32.00;82.40
37204;DHT22;23098;48.054;10.636;2022-08-05T12:39:24;31.60;81.40
37204;DHT22;23098;48.054;10.636;2022-08-05T12:41:50;31.40;81.70
37204;DHT22;23098;48.054;10.636;2022-08-05T12:44:21;31.30;82.10
37204;DHT22;23098;48.054;10.636;2022-08-05T12:46:54;31.40;82.80
37204;DHT22;23098;48.054;10.636;2022-08-05T12:49:21;31.60;82.10
37204;DHT22;23098;48.054;10.636;2022-08-05T13:02:26;32.00;81.40
37204;DHT22;23098;48.054;10.636;2022-08-05T13:04:53;32.10;82.50
37204;DHT22;23098;48.054;10.636;2022-08-05T13:07:21;32.30;83.20
37204;DHT22;23098;48.054;10.636;2022-08-05T13:09:56;32.20;81.50
37204;DHT22;23098;48.054;10.636;2022-08-05T13:12:23;32.20;82.40
37204;DHT22;23098;48.054;10.636;2022-08-05T13:14:57;32.20;82.50
37204;DHT22;23098;48.054;10.636;2022-08-05T13:17:31;31.90;83.40
37204;DHT22;23098;48.054;10.636;2022-08-05T13:20:07;31.80;84.30
37204;DHT22;23098;48.054;10.636;2022-08-05T13:22:37;32.00;83.40
37204;DHT22;23098;48.054;10.636;2022-08-05T13:25:19;32.00;83.20
37204;DHT22;23098;48.054;10.636;2022-08-05T13:27:54;31.90;82.00
37204;DHT22;23098;48.054;10.636;2022-08-05T13:30:23;31.80;84.40
37204;DHT22;23098;48.054;10.636;2022-08-05T13:32:50;32.00;83.70
37204;DHT22;23098;48.054;10.636;2022-08-05T13:35:17;32.00;82.40
37204;DHT22;23098;48.054;10.636;2022-08-05T13:37:43;32.10;82.10
37204;DHT22;23098;48.054;10.636;2022-08-05T13:40:10;32.30;82.40
37204;DHT22;23098;48.054;10.636;2022-08-05T13:42:36;32.30;81.90
37204;DHT22;23098;48.054;10.636;2022-08-05T13:45:02;32.40;81.60
37204;DHT22;23098;48.054;10.636;2022-08-05T13:47:28;32.50;82.00
37204;DHT22;23098;48.054;10.636;2022-08-05T13:49:54;32.60;80.90
37204;DHT22;23098;48.054;10.636;2022-08-05T13:52:21;32.70;81.60
37204;DHT22;23098;48.054;10.636;2022-08-05T13:54:47;33.00;81.60
37204;DHT22;23098;48.054;10.636;2022-08-05T13:57:14;32.80;80.70
37204;DHT22;23098;48.054;10.636;2022-08-05T13:59:41;32.50;80.60
37204;DHT22;23098;48.054;10.636;2022-08-05T14:02:08;32.40;81.00
37204;DHT22;23098;48.054;10.636;2022-08-05T14:04:45;32.70;82.10
37204;DHT22;23098;48.054;10.636;2022-08-05T14:07:35;32.70;81.70
37204;DHT22;23098;48.054;10.636;2022-08-05T14:10:13;32.70;80.90
37204;DHT22;23098;48.054;10.636;2022-08-05T14:12:40;32.90;81.20
37204;DHT22;23098;48.054;10.636;2022-08-05T14:15:06;33.00;80.50
37204;DHT22;23098;48.054;10.636;2022-08-05T14:17:34;32.70;81.70
37204;DHT22;23098;48.054;10.636;2022-08-05T14:30:21;32.50;80.80
37204;DHT22;23098;48.054;10.636;2022-08-05T14:40:33;31.70;81.90
37204;DHT22;23098;48.054;10.636;2022-08-05T14:45:34;32.10;81.30
37204;DHT22;23098;48.054;10.636;2022-08-05T14:50:35;32.30;81.80
37204;DHT22;23098;48.054;10.636;2022-08-05T14:55:36;32.40;80.10
37204;DHT22;23098;48.054;10.636;2022-08-05T14:58:02;32.10;79.10
37204;DHT22;23098;48.054;10.636;2022-08-05T15:00:27;31.80;79.10
37204;DHT22;23098;48.054;10.636;2022-08-05T15:08:04;32.00;80.40
37204;DHT22;23098;48.054;10.636;2022-08-05T15:15:40;32.40;78.60
37204;DHT22;23098;48.054;10.636;2022-08-05T15:18:08;32.50;78.90
37204;DHT22;23098;48.054;10.636;2022-08-05T15:20:37;32.40;79.70
37204;DHT22;23098;48.054;10.636;2022-08-05T15:23:08;32.50;79.30
37204;DHT22;23098;48.054;10.636;2022-08-05T15:49:05;31.20;82.70
37204;DHT22;23098;48.054;10.636;2022-08-05T15:51:31;30.90;82.90
37204;DHT22;23098;48.054;10.636;2022-08-05T15:53:57;30.90;82.60
37204;DHT22;23098;48.054;10.636;2022-08-05T15:56:26;30.60;82.50
37204;DHT22;23098;48.054;10.636;2022-08-05T15:58:53;30.70;83.10
37204;DHT22;23098;48.054;10.636;2022-08-05T16:01:26;30.70;82.60
37204;DHT22;23098;48.054;10.636;2022-08-05T16:03:52;30.60;81.40
37204;DHT22;23098;48.054;10.636;2022-08-05T16:06:18;30.60;83.60
37204;DHT22;23098;48.054;10.636;2022-08-05T16:08:44;30.60;81.30
37204;DHT22;23098;48.054;10.636;2022-08-05T16:11:09;30.50;82.50
37204;DHT22;23098;48.054;10.636;2022-08-05T16:13:35;30.30;83.10
37204;DHT22;23098;48.054;10.636;2022-08-05T16:16:02;30.40;83.40
37204;DHT22;23098;48.054;10.636;2022-08-05T16:18:28;30.30;81.40
37204;DHT22;23098;48.054;10.636;2022-08-05T16:20:54;30.30;80.80
37204;DHT22;23098;48.054;10.636;2022-08-05T16:23:19;30.30;82.40
37204;DHT22;23098;48.054;10.636;2022-08-05T16:25:45;30.40;82.50
37204;DHT22;23098;48.054;10.636;2022-08-05T16:28:12;30.30;81.80
37204;DHT22;23098;48.054;10.636;2022-08-05T16:30:38;30.30;82.00
37204;DHT22;23098;48.054;10.636;2022-08-05T16:33:03;30.30;83.10
37204;DHT22;23098;48.054;10.636;2022-08-05T16:35:29;30.20;82.70
37204;DHT22;23098;48.054;10.636;2022-08-05T16:37:55;30.10;81.60
37204;DHT22;23098;48.054;10.636;2022-08-05T16:40:22;30.00;83.20
37204;DHT22;23098;48.054;10.636;2022-08-05T16:42:47;29.90;82.60
37204;DHT22;23098;48.054;10.636;2022-08-05T16:45:14;29.80;85.50
37204;DHT22;23098;48.054;10.636;2022-08-05T16:47:40;29.80;84.60
37204;DHT22;23098;48.054;10.636;2022-08-05T16:50:05;29.70;85.30
37204;DHT22;23098;48.054;10.636;2022-08-05T16:52:32;29.60;83.30
37204;DHT22;23098;48.054;10.636;2022-08-05T16:54:59;29.50;83.30
37204;DHT22;23098;48.054;10.636;2022-08-05T16:57:24;29.40;84.60
37204;DHT22;23098;48.054;10.636;2022-08-05T16:59:50;29.40;85.30
37204;DHT22;23098;48.054;10.636;2022-08-05T17:02:16;29.30;85.20
37204;DHT22;23098;48.054;10.636;2022-08-05T17:04:42;29.20;84.40
37204;DHT22;23098;48.054;10.636;2022-08-05T17:07:07;29.10;84.60
37204;DHT22;23098;48.054;10.636;2022-08-05T17:09:33;29.10;85.50
37204;DHT22;23098;48.054;10.636;2022-08-05T17:11:58;28.90;85.50
37204;DHT22;23098;48.054;10.636;2022-08-05T17:14:24;28.80;85.50
37204;DHT22;23098;48.054;10.636;2022-08-05T17:16:50;28.80;86.90
37204;DHT22;23098;48.054;10.636;2022-08-05T17:19:15;28.80;86.50
37204;DHT22;23098;48.054;10.636;2022-08-05T17:21:41;28.70;87.40
37204;DHT22;23098;48.054;10.636;2022-08-05T17:24:08;28.70;87.30
37204;DHT22;23098;48.054;10.636;2022-08-05T17:26:35;28.70;88.10
37204;DHT22;23098;48.054;10.636;2022-08-05T17:29:01;28.60;87.50
37204;DHT22;23098;48.054;10.636;2022-08-05T17:31:27;28.50;87.70
37204;DHT22;23098;48.054;10.636;2022-08-05T17:33:53;28.40;87.60
37204;DHT22;23098;48.054;10.636;2022-08-05T17:36:19;28.30;88.70
37204;DHT22;23098;48.054;10.636;2022-08-05T17:38:45;28.30;88.60
37204;DHT22;23098;48.054;10.636;2022-08-05T17:41:11;28.20;88.90
37204;DHT22;23098;48.054;10.636;2022-08-05T17:43:36;28.10;89.30
37204;DHT22;23098;48.054;10.636;2022-08-05T17:46:02;28.10;89.10
37204;DHT22;23098;48.054;10.636;2022-08-05T17:48:27;28.10;88.50
37204;DHT22;23098;48.054;10.636;2022-08-05T17:50:53;28.10;88.70
37204;DHT22;23098;48.054;10.636;2022-08-05T17:53:18;28.00;88.90
37204;DHT22;23098;48.054;10.636;2022-08-05T17:55:44;28.00;89.70
37204;DHT22;23098;48.054;10.636;2022-08-05T17:58:11;27.80;90.20
37204;DHT22;23098;48.054;10.636;2022-08-05T18:00:39;27.70;90.70
37204;DHT22;23098;48.054;10.636;2022-08-05T18:03:04;27.50;91.20
37204;DHT22;23098;48.054;10.636;2022-08-05T18:05:30;27.40;91.00
37204;DHT22;23098;48.054;10.636;2022-08-05T18:07:56;27.30;91.10
37204;DHT22;23098;48.054;10.636;2022-08-05T18:10:21;27.20;91.10
37204;DHT22;23098;48.054;10.636;2022-08-05T18:12:47;27.20;91.10
37204;DHT22;23098;48.054;10.636;2022-08-05T18:15:13;27.10;91.30
37204;DHT22;23098;48.054;10.636;2022-08-05T18:17:39;27.10;91.40
37204;DHT22;23098;48.054;10.636;2022-08-05T18:20:16;27.00;91.60
37204;DHT22;23098;48.054;10.636;2022-08-05T18:22:41;27.00;91.80
37204;DHT22;23098;48.054;10.636;2022-08-05T18:25:07;26.90;92.20
37204;DHT22;23098;48.054;10.636;2022-08-05T18:30:04;26.80;92.40
37204;DHT22;23098;48.054;10.636;2022-08-05T18:32:29;26.70;92.70
37204;DHT22;23098;48.054;10.636;2022-08-05T18:34:56;26.70;92.70
37204;DHT22;23098;48.054;10.636;2022-08-05T18:37:21;26.60;93.10
37204;DHT22;23098;48.054;10.636;2022-08-05T18:39:47;26.60;93.20
37204;DHT22;23098;48.054;10.636;2022-08-05T18:42:12;26.50;93.30
37204;DHT22;23098;48.054;10.636;2022-08-05T18:44:38;26.50;93.40
37204;DHT22;23098;48.054;10.636;2022-08-05T18:47:04;26.50;93.60
37204;DHT22;23098;48.054;10.636;2022-08-05T18:49:29;26.40;93.70
37204;DHT22;23098;48.054;10.636;2022-08-05T18:52:13;26.40;93.20
37204;DHT22;23098;48.054;10.636;2022-08-05T18:54:59;26.40;93.20
37204;DHT22;23098;48.054;10.636;2022-08-05T18:57:29;26.40;93.10
37204;DHT22;23098;48.054;10.636;2022-08-05T18:59:55;26.30;93.30
37204;DHT22;23098;48.054;10.636;2022-08-05T19:02:21;26.30;93.30
37204;DHT22;23098;48.054;10.636;2022-08-05T19:04:47;26.30;93.40
37204;DHT22;23098;48.054;10.636;2022-08-05T19:07:12;26.30;93.60
37204;DHT22;23098;48.054;10.636;2022-08-05T19:09:38;26.20;93.70
37204;DHT22;23098;48.054;10.636;2022-08-05T19:12:03;26.10;93.90
37204;DHT22;23098;48.054;10.636;2022-08-05T19:14:31;26.10;94.10
37204;DHT22;23098;48.054;10.636;2022-08-05T19:16:56;26.00;94.10
37204;DHT22;23098;48.054;10.636;2022-08-05T19:19:22;26.00;94.40
37204;DHT22;23098;48.054;10.636;2022-08-05T19:21:47;25.90;94.70
37204;DHT22;23098;48.054;10.636;2022-08-05T19:24:13;25.80;94.80
37204;DHT22;23098;48.054;10.636;2022-08-05T19:26:39;25.70;95.00
37204;DHT22;23098;48.054;10.636;2022-08-05T19:29:04;25.70;95.20
37204;DHT22;23098;48.054;10.636;2022-08-05T19:31:30;25.50;95.20
37204;DHT22;23098;48.054;10.636;2022-08-05T19:33:55;25.40;95.90
37204;DHT22;23098;48.054;10.636;2022-08-05T19:36:21;25.30;96.10
37204;DHT22;23098;48.054;10.636;2022-08-05T19:38:47;25.20;96.20
37204;DHT22;23098;48.054;10.636;2022-08-05T19:41:13;25.00;97.20
37204;DHT22;23098;48.054;10.636;2022-08-05T19:43:39;24.20;99.90
37204;DHT22;23098;48.054;10.636;2022-08-05T19:46:07;22.10;99.90
37204;DHT22;23098;48.054;10.636;2022-08-05T19:48:32;20.30;99.90
37204;DHT22;23098;48.054;10.636;2022-08-05T19:50:58;19.60;99.90
37204;DHT22;23098;48.054;10.636;2022-08-05T19:53:24;18.50;99.90
37204;DHT22;23098;48.054;10.636;2022-08-05T19:55:49;18.80;99.90
37204;DHT22;23098;48.054;10.636;2022-08-05T19:58:16;18.60;99.90
37204;DHT22;23098;48.054;10.636;2022-08-05T20:00:42;18.10;99.90
37204;DHT22;23098;48.054;10.636;2022-08-05T20:03:08;18.10;99.90
37204;DHT22;23098;48.054;10.636;2022-08-05T20:05:35;18.00;99.90
37204;DHT22;23098;48.054;10.636;2022-08-05T20:08:00;18.10;99.90
37204;DHT22;23098;48.054;10.636;2022-08-05T20:10:26;18.20;99.90
37204;DHT22;23098;48.054;10.636;2022-08-05T20:12:51;18.00;99.90
37204;DHT22;23098;48.054;10.636;2022-08-05T20:15:18;18.20;99.90
37204;DHT22;23098;48.054;10.636;2022-08-05T20:17:45;18.30;99.90
37204;DHT22;23098;48.054;10.636;2022-08-05T20:20:11;18.20;99.90
37204;DHT22;23098;48.054;10.636;2022-08-05T20:22:37;18.00;99.90
37204;DHT22;23098;48.054;10.636;2022-08-05T20:25:02;17.90;99.90
37204;DHT22;23098;48.054;10.636;2022-08-05T20:27:28;18.00;99.90
37204;DHT22;23098;48.054;10.636;2022-08-05T20:29:54;18.00;99.90
37204;DHT22;23098;48.054;10.636;2022-08-05T20:32:21;18.10;99.90
37204;DHT22;23098;48.054;10.636;2022-08-05T20:34:46;17.90;99.90
37204;DHT22;23098;48.054;10.636;2022-08-05T20:37:12;18.00;99.90
37204;DHT22;23098;48.054;10.636;2022-08-05T20:39:37;18.10;99.90
37204;DHT22;23098;48.054;10.636;2022-08-05T20:42:04;18.00;99.90
37204;DHT22;23098;48.054;10.636;2022-08-05T20:44:30;17.80;99.90
37204;DHT22;23098;48.054;10.636;2022-08-05T20:46:58;17.90;99.90
37204;DHT22;23098;48.054;10.636;2022-08-05T20:49:27;17.70;99.90
37204;DHT22;23098;48.054;10.636;2022-08-05T20:51:55;17.60;99.90
37204;DHT22;23098;48.054;10.636;2022-08-05T20:54:21;17.60;99.90
37204;DHT22;23098;48.054;10.636;2022-08-05T20:56:47;17.70;99.90
37204;DHT22;23098;48.054;10.636;2022-08-05T20:59:13;17.70;99.90
37204;DHT22;23098;48.054;10.636;2022-08-05T21:01:38;17.60;99.90
37204;DHT22;23098;48.054;10.636;2022-08-05T21:04:04;17.60;99.90
37204;DHT22;23098;48.054;10.636;2022-08-05T21:06:31;17.70;99.90
37204;DHT22;23098;48.054;10.636;2022-08-05T21:09:03;17.60;99.90
37204;DHT22;23098;48.054;10.636;2022-08-05T21:11:28;17.70;99.90
37204;DHT22;23098;48.054;10.636;2022-08-05T21:13:54;17.60;99.90
37204;DHT22;23098;48.054;10.636;2022-08-05T21:16:19;17.50;99.90
37204;DHT22;23098;48.054;10.636;2022-08-05T21:18:45;17.50;99.90
37204;DHT22;23098;48.054;10.636;2022-08-05T21:21:11;17.50;99.90
37204;DHT22;23098;48.054;10.636;2022-08-05T21:23:36;17.50;99.90
37204;DHT22;23098;48.054;10.636;2022-08-05T21:26:02;17.60;99.90